sensor_id;sensor_type;location;lat;lon;timestamp;temperature;humidity
8220;DHT22;4151;51.110;7.020;2023-07-29T00:01:22;18.50;99.90
8220;DHT22;4151;51.110;7.020;2023-07-29T00:03:48;18.50;99.90
8220;DHT22;4151;51.110;7.020;2023-07-29T00:06:13;18.50;99.90
8220;DHT22;4151;51.110;7.020;2023-07-29T00:08:39;18.50;99.90
8220;DHT22;4151;51.110;7.020;2023-07-29T00:11:05;18.50;99.90
8220;DHT22;4151;51.110;7.020;2023-07-29T00:13:30;18.50;99.90
8220;DHT22;4151;51.110;7.020;2023-07-29T00:15:56;18.50;99.90
8220;DHT22;4151;51.110;7.020;2023-07-29T00:18:22;18.50;99.90
8220;DHT22;4151;51.110;7.020;2023-07-29T00:20:48;18.50;99.90
8220;DHT22;4151;51.110;7.020;2023-07-29T00:23:13;18.50;99.90
8220;DHT22;4151;51.110;7.020;2023-07-29T00:25:39;18.50;99.90
8220;DHT22;4151;51.110;7.020;2023-07-29T00:28:04;18.50;99.90
8220;DHT22;4151;51.110;7.020;2023-07-29T00:30:30;18.50;99.90
8220;DHT22;4151;51.110;7.020;2023-07-29T00:32:55;18.50;99.90
8220;DHT22;4151;51.110;7.020;2023-07-29T00:35:21;18.50;99.90
8220;DHT22;4151;51.110;7.020;2023-07-29T00:37:47;18.50;99.90
8220;DHT22;4151;51.110;7.020;2023-07-29T00:40:20;18.50;99.90
8220;DHT22;4151;51.110;7.020;2023-07-29T00:42:46;18.50;99.90
8220;DHT22;4151;51.110;7.020;2023-07-29T00:45:12;18.50;99.90
8220;DHT22;4151;51.110;7.020;2023-07-29T00:47:38;18.60;99.90
8220;DHT22;4151;51.110;7.020;2023-07-29T00:50:05;18.50;99.90
8220;DHT22;4151;51.110;7.020;2023-07-29T00:52:32;18.50;99.90
8220;DHT22;4151;51.110;7.020;2023-07-29T00:54:57;18.50;99.90
8220;DHT22;4151;51.110;7.020;2023-07-29T00:57:23;18.50;99.90
8220;DHT22;4151;51.110;7.020;2023-07-29T00:59:51;18.50;99.90
8220;DHT22;4151;51.110;7.020;2023-07-29T01:02:17;18.50;99.90
8220;DHT22;4151;51.110;7.020;2023-07-29T01:04:43;18.50;99.90
8220;DHT22;4151;51.110;7.020;2023-07-29T01:10:01;18.50;99.90
8220;DHT22;4151;51.110;7.020;2023-07-29T01:12:54;18.50;99.90
8220;DHT22;4151;51.110;7.020;2023-07-29T01:15:26;18.50;99.90
8220;DHT22;4151;51.110;7.020;2023-07-29T01:18:05;18.50;99.90
8220;DHT22;4151;51.110;7.020;2023-07-29T01:20:33;18.50;99.90
8220;DHT22;4151;51.110;7.020;2023-07-29T01:23:02;18.50;99.90
8220;DHT22;4151;51.110;7.020;2023-07-29T01:25:28;18.40;99.90
8220;DHT22;4151;51.110;7.020;2023-07-29T01:27:53;18.40;99.90
8220;DHT22;4151;51.110;7.020;2023-07-29T01:30:23;18.50;99.90
8220;DHT22;4151;51.110;7.020;2023-07-29T01:35:47;18.40;99.90
8220;DHT22;4151;51.110;7.020;2023-07-29T01:38:18;18.40;99.90
8220;DHT22;4151;51.110;7.020;2023-07-29T01:40:48;18.40;99.90
8220;DHT22;4151;51.110;7.020;2023-07-29T01:43:15;18.40;99.90
8220;DHT22;4151;51.110;7.020;2023-07-29T01:45:41;18.40;99.90
8220;DHT22;4151;51.110;7.020;2023-07-29T01:48:07;18.40;99.90
8220;DHT22;4151;51.110;7.020;2023-07-29T01:50:34;18.40;99.90
8220;DHT22;4151;51.110;7.020;2023-07-29T01:52:59;18.40;99.90
8220;DHT22;4151;51.110;7.020;2023-07-29T01:55:25;18.40;99.90
8220;DHT22;4151;51.110;7.020;2023-07-29T01:57:51;18.40;99.90
8220;DHT22;4151;51.110;7.020;2023-07-29T02:00:18;18.40;99.90
8220;DHT22;4151;51.110;7.020;2023-07-29T02:02:43;18.40;99.90
8220;DHT22;4151;51.110;7.020;2023-07-29T02:05:09;18.40;99.90
8220;DHT22;4151;51.110;7.020;2023-07-29T02:07:34;18.40;99.90
8220;DHT22;4151;51.110;7.020;2023-07-29T02:10:00;18.30;99.90
8220;DHT22;4151;51.110;7.020;2023-07-29T02:12:25;18.30;99.90
8220;DHT22;4151;51.110;7.020;2023-07-29T02:14:51;18.40;99.90
8220;DHT22;4151;51.110;7.020;2023-07-29T02:17:17;18.30;99.90
8220;DHT22;4151;51.110;7.020;2023-07-29T02:19:42;18.30;99.90
8220;DHT22;4151;51.110;7.020;2023-07-29T02:22:08;18.40;99.90
8220;DHT22;4151;51.110;7.020;2023-07-29T02:24:33;18.30;99.90
8220;DHT22;4151;51.110;7.020;2023-07-29T02:26:59;18.30;99.90
8220;DHT22;4151;51.110;7.020;2023-07-29T02:29:24;18.40;99.90
8220;DHT22;4151;51.110;7.020;2023-07-29T02:31:50;18.30;99.90
8220;DHT22;4151;51.110;7.020;2023-07-29T02:34:16;18.30;99.90
8220;DHT22;4151;51.110;7.020;2023-07-29T02:36:42;18.20;99.90
8220;DHT22;4151;51.110;7.020;2023-07-29T02:39:07;18.30;99.90
8220;DHT22;4151;51.110;7.020;2023-07-29T02:41:33;18.30;99.90
8220;DHT22;4151;51.110;7.020;2023-07-29T02:43:59;18.30;99.90
8220;DHT22;4151;51.110;7.020;2023-07-29T02:46:24;18.30;99.90
8220;DHT22;4151;51.110;7.020;2023-07-29T02:48:50;18.30;99.90
8220;DHT22;4151;51.110;7.020;2023-07-29T02:51:16;18.30;99.90
8220;DHT22;4151;51.110;7.020;2023-07-29T02:53:41;18.30;99.90
8220;DHT22;4151;51.110;7.020;2023-07-29T02:56:07;18.30;99.90
8220;DHT22;4151;51.110;7.020;2023-07-29T02:58:34;18.30;99.90
8220;DHT22;4151;51.110;7.020;2023-07-29T03:01:04;18.40;99.90
8220;DHT22;4151;51.110;7.020;2023-07-29T03:03:31;18.30;99.90
8220;DHT22;4151;51.110;7.020;2023-07-29T03:06:01;18.30;99.90
8220;DHT22;4151;51.110;7.020;2023-07-29T03:08:27;18.30;99.90
8220;DHT22;4151;51.110;7.020;2023-07-29T03:10:53;18.40;99.90
8220;DHT22;4151;51.110;7.020;2023-07-29T03:13:19;18.30;99.90
8220;DHT22;4151;51.110;7.020;2023-07-29T03:15:44;18.30;99.90
8220;DHT22;4151;51.110;7.020;2023-07-29T03:18:10;18.30;99.90
8220;DHT22;4151;51.110;7.020;2023-07-29T03:20:35;18.30;99.90
8220;DHT22;4151;51.110;7.020;2023-07-29T03:23:01;18.30;99.90
8220;DHT22;4151;51.110;7.020;2023-07-29T03:25:26;18.30;99.90
8220;DHT22;4151;51.110;7.020;2023-07-29T03:27:52;18.30;99.90
8220;DHT22;4151;51.110;7.020;2023-07-29T03:30:21;18.30;99.90
8220;DHT22;4151;51.110;7.020;2023-07-29T03:32:48;18.30;99.90
8220;DHT22;4151;51.110;7.020;2023-07-29T03:35:14;18.30;99.90
8220;DHT22;4151;51.110;7.020;2023-07-29T03:37:40;18.30;99.90
8220;DHT22;4151;51.110;7.020;2023-07-29T03:40:06;18.30;99.90
8220;DHT22;4151;51.110;7.020;2023-07-29T03:42:32;18.30;99.90
8220;DHT22;4151;51.110;7.020;2023-07-29T03:44:58;18.20;99.90
8220;DHT22;4151;51.110;7.020;2023-07-29T03:47:23;18.20;99.90
8220;DHT22;4151;51.110;7.020;2023-07-29T03:49:49;18.20;99.90
8220;DHT22;4151;51.110;7.020;2023-07-29T03:52:15;18.20;99.90
8220;DHT22;4151;51.110;7.020;2023-07-29T03:54:40;18.20;99.90
8220;DHT22;4151;51.110;7.020;2023-07-29T03:57:06;18.10;99.90
8220;DHT22;4151;51.110;7.020;2023-07-29T03:59:32;18.10;99.90
8220;DHT22;4151;51.110;7.020;2023-07-29T04:01:57;18.10;99.90
8220;DHT22;4151;51.110;7.020;2023-07-29T04:04:23;18.20;99.90
8220;DHT22;4151;51.110;7.020;2023-07-29T04:06:48;18.20;99.90
8220;DHT22;4151;51.110;7.020;2023-07-29T04:09:14;18.20;99.90
8220;DHT22;4151;51.110;7.020;2023-07-29T04:11:40;18.20;99.90
8220;DHT22;4151;51.110;7.020;2023-07-29T04:14:05;18.20;99.90
8220;DHT22;4151;51.110;7.020;2023-07-29T04:16:31;18.20;99.90
8220;DHT22;4151;51.110;7.020;2023-07-29T04:18:56;18.20;99.90
8220;DHT22;4151;51.110;7.020;2023-07-29T04:21:22;18.30;99.90
8220;DHT22;4151;51.110;7.020;2023-07-29T04:23:47;18.30;99.90
8220;DHT22;4151;51.110;7.020;2023-07-29T04:26:13;18.30;99.90
8220;DHT22;4151;51.110;7.020;2023-07-29T04:28:38;18.30;99.90
8220;DHT22;4151;51.110;7.020;2023-07-29T04:31:04;18.30;99.90
8220;DHT22;4151;51.110;7.020;2023-07-29T04:33:30;18.30;99.90
8220;DHT22;4151;51.110;7.020;2023-07-29T04:35:56;18.40;99.90
8220;DHT22;4151;51.110;7.020;2023-07-29T04:38:22;18.40;99.90
8220;DHT22;4151;51.110;7.020;2023-07-29T04:40:49;18.30;99.90
8220;DHT22;4151;51.110;7.020;2023-07-29T04:43:14;18.30;99.90
8220;DHT22;4151;51.110;7.020;2023-07-29T04:45:43;18.30;99.90
8220;DHT22;4151;51.110;7.020;2023-07-29T04:48:09;18.30;99.90
8220;DHT22;4151;51.110;7.020;2023-07-29T04:50:35;18.20;99.90
8220;DHT22;4151;51.110;7.020;2023-07-29T04:53:00;18.20;99.90
8220;DHT22;4151;51.110;7.020;2023-07-29T04:55:26;18.20;99.90
8220;DHT22;4151;51.110;7.020;2023-07-29T04:57:52;18.20;99.90
8220;DHT22;4151;51.110;7.020;2023-07-29T05:00:18;18.20;99.90
8220;DHT22;4151;51.110;7.020;2023-07-29T05:02:43;18.20;99.90
8220;DHT22;4151;51.110;7.020;2023-07-29T05:05:09;18.30;99.90
8220;DHT22;4151;51.110;7.020;2023-07-29T05:07:34;18.30;99.90
8220;DHT22;4151;51.110;7.020;2023-07-29T05:10:00;18.30;99.90
8220;DHT22;4151;51.110;7.020;2023-07-29T05:12:26;18.30;99.90
8220;DHT22;4151;51.110;7.020;2023-07-29T05:14:51;18.30;99.90
8220;DHT22;4151;51.110;7.020;2023-07-29T05:17:17;18.30;99.90
8220;DHT22;4151;51.110;7.020;2023-07-29T05:19:42;18.40;99.90
8220;DHT22;4151;51.110;7.020;2023-07-29T05:22:08;18.40;99.90
8220;DHT22;4151;51.110;7.020;2023-07-29T05:24:35;18.50;99.90
8220;DHT22;4151;51.110;7.020;2023-07-29T05:27:01;18.40;99.90
8220;DHT22;4151;51.110;7.020;2023-07-29T05:29:26;18.40;99.90
8220;DHT22;4151;51.110;7.020;2023-07-29T05:31:52;18.40;99.90
8220;DHT22;4151;51.110;7.020;2023-07-29T05:34:17;18.40;99.90
8220;DHT22;4151;51.110;7.020;2023-07-29T05:36:43;18.40;99.90
8220;DHT22;4151;51.110;7.020;2023-07-29T05:39:08;18.40;99.90
8220;DHT22;4151;51.110;7.020;2023-07-29T05:41:34;18.40;99.90
8220;DHT22;4151;51.110;7.020;2023-07-29T05:43:59;18.40;99.90
8220;DHT22;4151;51.110;7.020;2023-07-29T05:46:25;18.40;99.90
8220;DHT22;4151;51.110;7.020;2023-07-29T05:48:51;18.40;99.90
8220;DHT22;4151;51.110;7.020;2023-07-29T05:51:17;18.30;99.90
8220;DHT22;4151;51.110;7.020;2023-07-29T05:53:42;18.30;99.90
8220;DHT22;4151;51.110;7.020;2023-07-29T05:56:08;18.20;99.90
8220;DHT22;4151;51.110;7.020;2023-07-29T05:58:35;18.30;99.90
8220;DHT22;4151;51.110;7.020;2023-07-29T06:01:01;18.30;99.90
8220;DHT22;4151;51.110;7.020;2023-07-29T06:03:26;18.30;99.90
8220;DHT22;4151;51.110;7.020;2023-07-29T06:05:52;18.30;99.90
8220;DHT22;4151;51.110;7.020;2023-07-29T06:08:18;18.20;99.90
8220;DHT22;4151;51.110;7.020;2023-07-29T06:10:43;18.20;99.90
8220;DHT22;4151;51.110;7.020;2023-07-29T06:13:09;18.30;99.90
8220;DHT22;4151;51.110;7.020;2023-07-29T06:15:34;18.40;99.90
8220;DHT22;4151;51.110;7.020;2023-07-29T06:18:00;18.40;99.90
8220;DHT22;4151;51.110;7.020;2023-07-29T06:20:26;18.40;99.90
8220;DHT22;4151;51.110;7.020;2023-07-29T06:22:51;18.50;99.90
8220;DHT22;4151;51.110;7.020;2023-07-29T06:25:17;18.60;99.90
8220;DHT22;4151;51.110;7.020;2023-07-29T06:27:42;18.60;99.90
8220;DHT22;4151;51.110;7.020;2023-07-29T06:30:08;18.70;99.90
8220;DHT22;4151;51.110;7.020;2023-07-29T06:32:34;18.70;99.90
8220;DHT22;4151;51.110;7.020;2023-07-29T06:35:00;18.70;99.90
8220;DHT22;4151;51.110;7.020;2023-07-29T06:37:25;18.60;99.90
8220;DHT22;4151;51.110;7.020;2023-07-29T06:39:51;18.50;99.90
8220;DHT22;4151;51.110;7.020;2023-07-29T06:42:17;18.40;99.90
8220;DHT22;4151;51.110;7.020;2023-07-29T06:44:42;18.40;99.90
8220;DHT22;4151;51.110;7.020;2023-07-29T06:47:08;18.30;99.90
8220;DHT22;4151;51.110;7.020;2023-07-29T06:49:33;18.30;99.90
8220;DHT22;4151;51.110;7.020;2023-07-29T06:52:00;18.30;99.90
8220;DHT22;4151;51.110;7.020;2023-07-29T06:54:26;18.30;99.90
8220;DHT22;4151;51.110;7.020;2023-07-29T06:56:52;18.20;99.90
8220;DHT22;4151;51.110;7.020;2023-07-29T06:59:17;18.20;99.90
8220;DHT22;4151;51.110;7.020;2023-07-29T07:01:43;18.20;99.90
8220;DHT22;4151;51.110;7.020;2023-07-29T07:04:09;18.20;99.90
8220;DHT22;4151;51.110;7.020;2023-07-29T07:06:34;18.20;99.90
8220;DHT22;4151;51.110;7.020;2023-07-29T07:09:00;18.30;99.90
8220;DHT22;4151;51.110;7.020;2023-07-29T07:11:26;18.40;99.90
8220;DHT22;4151;51.110;7.020;2023-07-29T07:13:51;18.60;99.90
8220;DHT22;4151;51.110;7.020;2023-07-29T07:16:17;18.90;99.90
8220;DHT22;4151;51.110;7.020;2023-07-29T07:18:43;19.10;99.90
8220;DHT22;4151;51.110;7.020;2023-07-29T07:21:09;19.20;99.90
8220;DHT22;4151;51.110;7.020;2023-07-29T07:23:34;19.40;99.90
8220;DHT22;4151;51.110;7.020;2023-07-29T07:26:00;19.60;99.90
8220;DHT22;4151;51.110;7.020;2023-07-29T07:28:26;19.80;99.90
8220;DHT22;4151;51.110;7.020;2023-07-29T07:30:51;20.10;99.90
8220;DHT22;4151;51.110;7.020;2023-07-29T07:33:17;20.20;99.90
8220;DHT22;4151;51.110;7.020;2023-07-29T07:35:42;20.20;99.90
8220;DHT22;4151;51.110;7.020;2023-07-29T07:38:08;20.10;99.90
8220;DHT22;4151;51.110;7.020;2023-07-29T07:40:35;20.00;99.90
8220;DHT22;4151;51.110;7.020;2023-07-29T07:43:01;20.20;99.90
8220;DHT22;4151;51.110;7.020;2023-07-29T07:45:27;20.20;99.90
8220;DHT22;4151;51.110;7.020;2023-07-29T07:47:53;20.20;99.90
8220;DHT22;4151;51.110;7.020;2023-07-29T07:50:21;20.20;99.90
8220;DHT22;4151;51.110;7.020;2023-07-29T07:52:49;19.90;99.90
8220;DHT22;4151;51.110;7.020;2023-07-29T07:55:15;19.80;99.90
8220;DHT22;4151;51.110;7.020;2023-07-29T07:57:40;19.80;99.90
8220;DHT22;4151;51.110;7.020;2023-07-29T08:00:06;19.80;99.90
8220;DHT22;4151;51.110;7.020;2023-07-29T08:02:32;19.80;99.90
8220;DHT22;4151;51.110;7.020;2023-07-29T08:04:57;19.80;99.90
8220;DHT22;4151;51.110;7.020;2023-07-29T08:07:23;19.80;99.90
8220;DHT22;4151;51.110;7.020;2023-07-29T08:09:49;19.70;99.90
8220;DHT22;4151;51.110;7.020;2023-07-29T08:12:14;19.60;99.90
8220;DHT22;4151;51.110;7.020;2023-07-29T08:14:40;19.80;99.90
8220;DHT22;4151;51.110;7.020;2023-07-29T08:17:05;19.80;99.90
8220;DHT22;4151;51.110;7.020;2023-07-29T08:19:31;19.70;99.90
8220;DHT22;4151;51.110;7.020;2023-07-29T08:21:57;19.70;99.90
8220;DHT22;4151;51.110;7.020;2023-07-29T08:24:22;19.70;99.90
8220;DHT22;4151;51.110;7.020;2023-07-29T08:26:48;19.80;99.90
8220;DHT22;4151;51.110;7.020;2023-07-29T08:29:13;20.00;99.90
8220;DHT22;4151;51.110;7.020;2023-07-29T08:31:39;20.20;99.90
8220;DHT22;4151;51.110;7.020;2023-07-29T08:34:04;20.50;99.90
8220;DHT22;4151;51.110;7.020;2023-07-29T08:36:30;20.40;99.90
8220;DHT22;4151;51.110;7.020;2023-07-29T08:38:55;20.60;99.90
8220;DHT22;4151;51.110;7.020;2023-07-29T08:41:41;20.60;99.90
8220;DHT22;4151;51.110;7.020;2023-07-29T08:44:16;20.70;99.90
8220;DHT22;4151;51.110;7.020;2023-07-29T08:46:44;20.80;99.90
8220;DHT22;4151;51.110;7.020;2023-07-29T08:49:11;21.00;99.90
8220;DHT22;4151;51.110;7.020;2023-07-29T08:51:41;21.30;99.90
8220;DHT22;4151;51.110;7.020;2023-07-29T08:54:08;21.40;99.90
8220;DHT22;4151;51.110;7.020;2023-07-29T08:56:34;21.80;99.90
8220;DHT22;4151;51.110;7.020;2023-07-29T08:59:00;21.90;99.90
8220;DHT22;4151;51.110;7.020;2023-07-29T09:01:27;22.20;99.90
8220;DHT22;4151;51.110;7.020;2023-07-29T09:03:53;22.10;99.90
8220;DHT22;4151;51.110;7.020;2023-07-29T09:06:19;22.00;99.90
8220;DHT22;4151;51.110;7.020;2023-07-29T09:08:49;22.10;99.90
8220;DHT22;4151;51.110;7.020;2023-07-29T09:11:16;21.90;99.90
8220;DHT22;4151;51.110;7.020;2023-07-29T09:13:43;21.70;99.90
8220;DHT22;4151;51.110;7.020;2023-07-29T09:16:09;21.60;99.90
8220;DHT22;4151;51.110;7.020;2023-07-29T09:18:34;21.60;99.90
8220;DHT22;4151;51.110;7.020;2023-07-29T09:21:00;21.50;99.90
8220;DHT22;4151;51.110;7.020;2023-07-29T09:23:26;21.50;99.90
8220;DHT22;4151;51.110;7.020;2023-07-29T09:26:02;21.60;99.90
8220;DHT22;4151;51.110;7.020;2023-07-29T09:28:35;21.70;99.90
8220;DHT22;4151;51.110;7.020;2023-07-29T09:31:01;21.50;99.90
8220;DHT22;4151;51.110;7.020;2023-07-29T09:33:33;21.50;99.90
8220;DHT22;4151;51.110;7.020;2023-07-29T09:36:09;21.70;99.90
8220;DHT22;4151;51.110;7.020;2023-07-29T09:38:35;21.70;99.90
8220;DHT22;4151;51.110;7.020;2023-07-29T09:41:01;21.70;99.90
8220;DHT22;4151;51.110;7.020;2023-07-29T09:43:32;21.60;99.90
8220;DHT22;4151;51.110;7.020;2023-07-29T09:46:01;21.60;99.90
8220;DHT22;4151;51.110;7.020;2023-07-29T09:48:27;21.60;99.90
8220;DHT22;4151;51.110;7.020;2023-07-29T09:50:56;21.60;99.90
8220;DHT22;4151;51.110;7.020;2023-07-29T09:53:21;21.80;99.90
8220;DHT22;4151;51.110;7.020;2023-07-29T09:55:47;22.10;99.90
8220;DHT22;4151;51.110;7.020;2023-07-29T09:58:22;22.20;99.90
8220;DHT22;4151;51.110;7.020;2023-07-29T10:00:51;22.20;99.90
8220;DHT22;4151;51.110;7.020;2023-07-29T10:03:18;22.20;99.90
8220;DHT22;4151;51.110;7.020;2023-07-29T10:05:44;22.00;99.90
8220;DHT22;4151;51.110;7.020;2023-07-29T10:08:10;21.90;99.90
8220;DHT22;4151;51.110;7.020;2023-07-29T10:10:37;21.90;99.90
8220;DHT22;4151;51.110;7.020;2023-07-29T10:13:03;22.10;99.90
8220;DHT22;4151;51.110;7.020;2023-07-29T10:15:29;22.30;99.90
8220;DHT22;4151;51.110;7.020;2023-07-29T10:17:56;22.10;99.90
8220;DHT22;4151;51.110;7.020;2023-07-29T10:20:22;21.80;99.90
8220;DHT22;4151;51.110;7.020;2023-07-29T10:22:49;21.80;99.90
8220;DHT22;4151;51.110;7.020;2023-07-29T10:25:17;22.00;99.90
8220;DHT22;4151;51.110;7.020;2023-07-29T10:30:13;22.60;99.90
8220;DHT22;4151;51.110;7.020;2023-07-29T10:32:42;22.50;99.90
8220;DHT22;4151;51.110;7.020;2023-07-29T10:35:09;22.30;99.90
8220;DHT22;4151;51.110;7.020;2023-07-29T10:37:35;22.10;99.90
8220;DHT22;4151;51.110;7.020;2023-07-29T10:40:06;21.90;99.90
8220;DHT22;4151;51.110;7.020;2023-07-29T10:42:32;21.70;99.90
8220;DHT22;4151;51.110;7.020;2023-07-29T10:44:58;21.40;99.90
8220;DHT22;4151;51.110;7.020;2023-07-29T10:47:28;21.40;99.90
8220;DHT22;4151;51.110;7.020;2023-07-29T10:49:58;21.50;99.90
8220;DHT22;4151;51.110;7.020;2023-07-29T10:54:59;21.20;99.90
8220;DHT22;4151;51.110;7.020;2023-07-29T10:57:38;21.00;99.90
8220;DHT22;4151;51.110;7.020;2023-07-29T11:00:06;21.10;99.90
8220;DHT22;4151;51.110;7.020;2023-07-29T11:02:37;21.40;99.90
8220;DHT22;4151;51.110;7.020;2023-07-29T11:05:07;21.70;99.90
8220;DHT22;4151;51.110;7.020;2023-07-29T11:07:52;22.40;99.90
8220;DHT22;4151;51.110;7.020;2023-07-29T11:10:18;23.20;99.90
8220;DHT22;4151;51.110;7.020;2023-07-29T11:15:15;23.90;99.90
8220;DHT22;4151;51.110;7.020;2023-07-29T11:17:43;24.60;99.90
8220;DHT22;4151;51.110;7.020;2023-07-29T11:20:10;24.70;99.90
8220;DHT22;4151;51.110;7.020;2023-07-29T11:22:36;24.50;99.90
8220;DHT22;4151;51.110;7.020;2023-07-29T11:25:02;24.30;99.90
8220;DHT22;4151;51.110;7.020;2023-07-29T11:27:28;24.00;99.90
8220;DHT22;4151;51.110;7.020;2023-07-29T11:30:01;24.00;99.90
8220;DHT22;4151;51.110;7.020;2023-07-29T11:32:27;24.10;99.90
8220;DHT22;4151;51.110;7.020;2023-07-29T11:34:53;24.40;99.90
8220;DHT22;4151;51.110;7.020;2023-07-29T11:37:19;23.90;99.90
8220;DHT22;4151;51.110;7.020;2023-07-29T11:39:46;23.80;99.90
8220;DHT22;4151;51.110;7.020;2023-07-29T11:42:12;23.80;99.90
8220;DHT22;4151;51.110;7.020;2023-07-29T11:44:38;23.80;99.90
8220;DHT22;4151;51.110;7.020;2023-07-29T11:47:11;23.60;99.90
8220;DHT22;4151;51.110;7.020;2023-07-29T11:49:39;23.70;99.90
8220;DHT22;4151;51.110;7.020;2023-07-29T11:52:10;23.70;99.90
8220;DHT22;4151;51.110;7.020;2023-07-29T11:54:37;23.50;99.90
8220;DHT22;4151;51.110;7.020;2023-07-29T11:57:07;23.20;99.90
8220;DHT22;4151;51.110;7.020;2023-07-29T11:59:34;23.00;99.90
8220;DHT22;4151;51.110;7.020;2023-07-29T12:02:01;22.80;99.90
8220;DHT22;4151;51.110;7.020;2023-07-29T12:04:28;22.80;99.90
8220;DHT22;4151;51.110;7.020;2023-07-29T12:06:54;22.90;99.90
8220;DHT22;4151;51.110;7.020;2023-07-29T12:09:20;22.90;99.90
8220;DHT22;4151;51.110;7.020;2023-07-29T12:11:46;23.10;99.90
8220;DHT22;4151;51.110;7.020;2023-07-29T12:14:12;23.20;99.90
8220;DHT22;4151;51.110;7.020;2023-07-29T12:16:44;24.10;99.90
8220;DHT22;4151;51.110;7.020;2023-07-29T12:19:13;25.20;99.90
8220;DHT22;4151;51.110;7.020;2023-07-29T12:21:41;25.70;99.90
8220;DHT22;4151;51.110;7.020;2023-07-29T12:24:07;26.20;99.90
8220;DHT22;4151;51.110;7.020;2023-07-29T12:26:33;26.10;99.90
8220;DHT22;4151;51.110;7.020;2023-07-29T12:28:59;25.70;99.90
8220;DHT22;4151;51.110;7.020;2023-07-29T12:31:31;25.70;99.90
8220;DHT22;4151;51.110;7.020;2023-07-29T12:33:58;26.20;99.90
8220;DHT22;4151;51.110;7.020;2023-07-29T12:36:39;26.00;99.90
8220;DHT22;4151;51.110;7.020;2023-07-29T12:39:05;25.70;99.90
8220;DHT22;4151;51.110;7.020;2023-07-29T12:41:31;25.30;99.90
8220;DHT22;4151;51.110;7.020;2023-07-29T12:43:56;25.20;99.90
8220;DHT22;4151;51.110;7.020;2023-07-29T12:46:22;25.50;99.90
8220;DHT22;4151;51.110;7.020;2023-07-29T12:48:47;26.50;99.90
8220;DHT22;4151;51.110;7.020;2023-07-29T12:51:13;26.70;99.90
8220;DHT22;4151;51.110;7.020;2023-07-29T12:53:38;26.30;99.90
8220;DHT22;4151;51.110;7.020;2023-07-29T12:56:05;25.70;99.90
8220;DHT22;4151;51.110;7.020;2023-07-29T12:58:31;25.70;99.90
8220;DHT22;4151;51.110;7.020;2023-07-29T13:00:57;25.20;99.90
8220;DHT22;4151;51.110;7.020;2023-07-29T13:03:22;24.90;99.90
8220;DHT22;4151;51.110;7.020;2023-07-29T13:05:48;24.80;99.90
8220;DHT22;4151;51.110;7.020;2023-07-29T13:08:13;25.00;99.90
8220;DHT22;4151;51.110;7.020;2023-07-29T13:10:39;25.20;99.90
8220;DHT22;4151;51.110;7.020;2023-07-29T13:13:04;25.20;99.90
8220;DHT22;4151;51.110;7.020;2023-07-29T13:15:30;24.80;99.90
8220;DHT22;4151;51.110;7.020;2023-07-29T13:17:55;24.40;99.90
8220;DHT22;4151;51.110;7.020;2023-07-29T13:20:21;24.30;99.90
8220;DHT22;4151;51.110;7.020;2023-07-29T13:22:46;24.10;99.90
8220;DHT22;4151;51.110;7.020;2023-07-29T13:25:12;23.70;99.90
8220;DHT22;4151;51.110;7.020;2023-07-29T13:27:38;23.40;99.90
8220;DHT22;4151;51.110;7.020;2023-07-29T13:30:04;23.30;99.90
8220;DHT22;4151;51.110;7.020;2023-07-29T13:32:29;23.10;99.90
8220;DHT22;4151;51.110;7.020;2023-07-29T13:34:55;22.90;99.90
8220;DHT22;4151;51.110;7.020;2023-07-29T13:37:20;22.60;99.90
8220;DHT22;4151;51.110;7.020;2023-07-29T13:39:46;22.40;99.90
8220;DHT22;4151;51.110;7.020;2023-07-29T13:42:11;22.30;99.90
8220;DHT22;4151;51.110;7.020;2023-07-29T13:44:37;22.10;99.90
8220;DHT22;4151;51.110;7.020;2023-07-29T13:47:03;21.80;99.90
8220;DHT22;4151;51.110;7.020;2023-07-29T13:49:28;21.60;99.90
8220;DHT22;4151;51.110;7.020;2023-07-29T13:51:54;21.30;99.90
8220;DHT22;4151;51.110;7.020;2023-07-29T13:54:19;21.10;99.90
8220;DHT22;4151;51.110;7.020;2023-07-29T13:56:45;21.10;99.90
8220;DHT22;4151;51.110;7.020;2023-07-29T13:59:10;20.90;99.90
8220;DHT22;4151;51.110;7.020;2023-07-29T14:01:36;20.80;99.90
8220;DHT22;4151;51.110;7.020;2023-07-29T14:04:01;20.70;99.90
8220;DHT22;4151;51.110;7.020;2023-07-29T14:06:27;20.60;99.90
8220;DHT22;4151;51.110;7.020;2023-07-29T14:08:53;20.40;99.90
8220;DHT22;4151;51.110;7.020;2023-07-29T14:11:18;20.30;99.90
8220;DHT22;4151;51.110;7.020;2023-07-29T14:13:44;20.20;99.90
8220;DHT22;4151;51.110;7.020;2023-07-29T14:16:09;20.10;99.90
8220;DHT22;4151;51.110;7.020;2023-07-29T14:18:35;20.00;99.90
8220;DHT22;4151;51.110;7.020;2023-07-29T14:21:00;19.90;99.90
8220;DHT22;4151;51.110;7.020;2023-07-29T14:23:26;20.00;99.90
8220;DHT22;4151;51.110;7.020;2023-07-29T14:25:51;20.40;99.90
8220;DHT22;4151;51.110;7.020;2023-07-29T14:28:17;20.60;99.90
8220;DHT22;4151;51.110;7.020;2023-07-29T14:30:42;21.10;99.90
8220;DHT22;4151;51.110;7.020;2023-07-29T14:33:08;21.70;99.90
8220;DHT22;4151;51.110;7.020;2023-07-29T14:35:34;22.20;99.90
8220;DHT22;4151;51.110;7.020;2023-07-29T14:37:59;23.10;99.90
8220;DHT22;4151;51.110;7.020;2023-07-29T14:40:25;23.90;99.90
8220;DHT22;4151;51.110;7.020;2023-07-29T14:42:50;25.00;99.90
8220;DHT22;4151;51.110;7.020;2023-07-29T14:45:16;26.00;99.90
8220;DHT22;4151;51.110;7.020;2023-07-29T14:47:41;26.00;99.90
8220;DHT22;4151;51.110;7.020;2023-07-29T14:50:07;25.50;99.90
8220;DHT22;4151;51.110;7.020;2023-07-29T14:52:33;25.30;99.90
8220;DHT22;4151;51.110;7.020;2023-07-29T14:54:58;25.70;99.90
8220;DHT22;4151;51.110;7.020;2023-07-29T14:57:24;26.10;99.90
8220;DHT22;4151;51.110;7.020;2023-07-29T14:59:49;25.50;99.90
8220;DHT22;4151;51.110;7.020;2023-07-29T15:02:15;25.10;99.90
8220;DHT22;4151;51.110;7.020;2023-07-29T15:04:40;25.40;99.90
8220;DHT22;4151;51.110;7.020;2023-07-29T15:07:06;24.80;99.90
8220;DHT22;4151;51.110;7.020;2023-07-29T15:09:31;25.20;99.90
8220;DHT22;4151;51.110;7.020;2023-07-29T15:11:57;26.70;99.90
8220;DHT22;4151;51.110;7.020;2023-07-29T15:14:23;26.50;99.90
8220;DHT22;4151;51.110;7.020;2023-07-29T15:16:48;25.50;99.90
8220;DHT22;4151;51.110;7.020;2023-07-29T15:19:14;24.50;99.90
8220;DHT22;4151;51.110;7.020;2023-07-29T15:21:39;24.10;99.90
8220;DHT22;4151;51.110;7.020;2023-07-29T15:24:05;23.80;99.90
8220;DHT22;4151;51.110;7.020;2023-07-29T15:26:30;23.60;99.90
8220;DHT22;4151;51.110;7.020;2023-07-29T15:28:59;23.60;99.90
8220;DHT22;4151;51.110;7.020;2023-07-29T15:31:25;23.50;99.90
8220;DHT22;4151;51.110;7.020;2023-07-29T15:33:51;23.30;99.90
8220;DHT22;4151;51.110;7.020;2023-07-29T15:36:17;23.30;99.90
8220;DHT22;4151;51.110;7.020;2023-07-29T15:38:43;23.50;99.90
8220;DHT22;4151;51.110;7.020;2023-07-29T15:41:08;23.40;99.90
8220;DHT22;4151;51.110;7.020;2023-07-29T15:43:34;23.30;99.90
8220;DHT22;4151;51.110;7.020;2023-07-29T15:45:59;22.90;99.90
8220;DHT22;4151;51.110;7.020;2023-07-29T15:48:25;23.10;99.90
8220;DHT22;4151;51.110;7.020;2023-07-29T15:50:50;23.00;99.90
8220;DHT22;4151;51.110;7.020;2023-07-29T15:53:16;23.80;99.90
8220;DHT22;4151;51.110;7.020;2023-07-29T15:55:41;24.10;99.90
8220;DHT22;4151;51.110;7.020;2023-07-29T15:58:07;24.20;99.90
8220;DHT22;4151;51.110;7.020;2023-07-29T16:00:33;24.30;99.90
8220;DHT22;4151;51.110;7.020;2023-07-29T16:02:58;24.50;99.90
8220;DHT22;4151;51.110;7.020;2023-07-29T16:05:24;25.30;99.90
8220;DHT22;4151;51.110;7.020;2023-07-29T16:07:49;26.00;99.90
8220;DHT22;4151;51.110;7.020;2023-07-29T16:10:15;26.10;99.90